sensor_id;sensor_type;location;lat;lon;timestamp;P1;durP1;ratioP1;P2;durP2;ratioP2
4984;SDS011;2509;49.902;8.600;2023-07-31T00:01:55;3.60;;;1.40;;
4984;SDS011;2509;49.902;8.600;2023-07-31T00:04:57;3.33;;;0.93;;
4984;SDS011;2509;49.902;8.600;2023-07-31T00:07:59;3.83;;;1.23;;
4984;SDS011;2509;49.902;8.600;2023-07-31T00:11:00;3.00;;;1.00;;
4984;SDS011;2509;49.902;8.600;2023-07-31T00:14:02;3.73;;;1.20;;
4984;SDS011;2509;49.902;8.600;2023-07-31T00:17:06;2.90;;;0.70;;
4984;SDS011;2509;49.902;8.600;2023-07-31T00:20:08;3.63;;;1.00;;
4984;SDS011;2509;49.902;8.600;2023-07-31T00:23:10;3.10;;;0.83;;
4984;SDS011;2509;49.902;8.600;2023-07-31T00:26:12;2.90;;;0.80;;
4984;SDS011;2509;49.902;8.600;2023-07-31T00:29:13;3.30;;;0.90;;
4984;SDS011;2509;49.902;8.600;2023-07-31T00:32:17;3.33;;;1.10;;
4984;SDS011;2509;49.902;8.600;2023-07-31T00:35:18;3.50;;;0.70;;
4984;SDS011;2509;49.902;8.600;2023-07-31T00:38:20;3.03;;;0.80;;
4984;SDS011;2509;49.902;8.600;2023-07-31T00:41:22;3.17;;;1.13;;
4984;SDS011;2509;49.902;8.600;2023-07-31T00:44:24;3.07;;;1.03;;
4984;SDS011;2509;49.902;8.600;2023-07-31T00:47:27;5.07;;;1.30;;
4984;SDS011;2509;49.902;8.600;2023-07-31T00:50:28;3.13;;;1.03;;
4984;SDS011;2509;49.902;8.600;2023-07-31T00:53:31;3.20;;;1.20;;
4984;SDS011;2509;49.902;8.600;2023-07-31T00:56:32;3.30;;;1.10;;
4984;SDS011;2509;49.902;8.600;2023-07-31T00:59:34;3.00;;;0.80;;
4984;SDS011;2509;49.902;8.600;2023-07-31T01:02:38;4.03;;;1.20;;
4984;SDS011;2509;49.902;8.600;2023-07-31T01:05:43;3.13;;;1.00;;
4984;SDS011;2509;49.902;8.600;2023-07-31T01:09:03;2.90;;;0.90;;
4984;SDS011;2509;49.902;8.600;2023-07-31T01:12:10;3.20;;;0.87;;
4984;SDS011;2509;49.902;8.600;2023-07-31T01:15:15;3.27;;;0.90;;
4984;SDS011;2509;49.902;8.600;2023-07-31T01:18:18;3.40;;;1.00;;
4984;SDS011;2509;49.902;8.600;2023-07-31T01:21:29;3.10;;;0.90;;
4984;SDS011;2509;49.902;8.600;2023-07-31T01:24:46;3.27;;;1.00;;
4984;SDS011;2509;49.902;8.600;2023-07-31T01:27:59;3.90;;;1.10;;
4984;SDS011;2509;49.902;8.600;2023-07-31T01:31:03;4.30;;;1.60;;
4984;SDS011;2509;49.902;8.600;2023-07-31T01:34:08;3.40;;;1.20;;
4984;SDS011;2509;49.902;8.600;2023-07-31T01:37:11;3.30;;;1.10;;
4984;SDS011;2509;49.902;8.600;2023-07-31T01:40:12;3.10;;;1.00;;
4984;SDS011;2509;49.902;8.600;2023-07-31T01:43:15;2.80;;;0.70;;
4984;SDS011;2509;49.902;8.600;2023-07-31T01:46:17;2.70;;;0.67;;
4984;SDS011;2509;49.902;8.600;2023-07-31T01:49:19;2.83;;;0.83;;
4984;SDS011;2509;49.902;8.600;2023-07-31T01:52:21;3.10;;;0.90;;
4984;SDS011;2509;49.902;8.600;2023-07-31T01:55:22;3.67;;;1.07;;
4984;SDS011;2509;49.902;8.600;2023-07-31T01:58:25;4.80;;;1.40;;
4984;SDS011;2509;49.902;8.600;2023-07-31T02:01:27;3.00;;;1.00;;
4984;SDS011;2509;49.902;8.600;2023-07-31T02:04:29;4.07;;;0.83;;
4984;SDS011;2509;49.902;8.600;2023-07-31T02:07:31;3.87;;;0.90;;
4984;SDS011;2509;49.902;8.600;2023-07-31T02:10:32;3.10;;;0.90;;
4984;SDS011;2509;49.902;8.600;2023-07-31T02:13:37;4.40;;;1.00;;
4984;SDS011;2509;49.902;8.600;2023-07-31T02:16:39;3.23;;;1.00;;
4984;SDS011;2509;49.902;8.600;2023-07-31T02:19:42;3.87;;;0.90;;
4984;SDS011;2509;49.902;8.600;2023-07-31T02:22:44;3.13;;;0.87;;
4984;SDS011;2509;49.902;8.600;2023-07-31T02:25:46;3.17;;;1.00;;
4984;SDS011;2509;49.902;8.600;2023-07-31T02:28:49;3.20;;;1.03;;
4984;SDS011;2509;49.902;8.600;2023-07-31T02:31:51;3.67;;;1.30;;
4984;SDS011;2509;49.902;8.600;2023-07-31T02:34:53;3.17;;;0.90;;
4984;SDS011;2509;49.902;8.600;2023-07-31T02:37:54;3.73;;;0.83;;
4984;SDS011;2509;49.902;8.600;2023-07-31T02:40:56;3.80;;;0.83;;
4984;SDS011;2509;49.902;8.600;2023-07-31T02:43:59;3.50;;;1.20;;
4984;SDS011;2509;49.902;8.600;2023-07-31T02:47:01;4.10;;;1.00;;
4984;SDS011;2509;49.902;8.600;2023-07-31T02:50:03;5.20;;;0.90;;
4984;SDS011;2509;49.902;8.600;2023-07-31T02:53:06;3.77;;;0.90;;
4984;SDS011;2509;49.902;8.600;2023-07-31T02:56:07;4.00;;;1.07;;
4984;SDS011;2509;49.902;8.600;2023-07-31T02:59:10;4.47;;;1.03;;
4984;SDS011;2509;49.902;8.600;2023-07-31T03:02:12;3.23;;;1.00;;
4984;SDS011;2509;49.902;8.600;2023-07-31T03:05:14;2.97;;;0.80;;
4984;SDS011;2509;49.902;8.600;2023-07-31T03:08:16;3.00;;;0.80;;
4984;SDS011;2509;49.902;8.600;2023-07-31T03:11:18;3.10;;;1.00;;
4984;SDS011;2509;49.902;8.600;2023-07-31T03:14:21;3.20;;;0.80;;
4984;SDS011;2509;49.902;8.600;2023-07-31T03:17:23;3.30;;;0.90;;
4984;SDS011;2509;49.902;8.600;2023-07-31T03:20:25;3.50;;;1.00;;
4984;SDS011;2509;49.902;8.600;2023-07-31T03:23:26;3.00;;;1.00;;
4984;SDS011;2509;49.902;8.600;2023-07-31T03:26:28;3.90;;;1.23;;
4984;SDS011;2509;49.902;8.600;2023-07-31T03:29:33;3.20;;;1.00;;
4984;SDS011;2509;49.902;8.600;2023-07-31T03:32:35;3.47;;;1.03;;
4984;SDS011;2509;49.902;8.600;2023-07-31T03:35:37;3.50;;;1.20;;
4984;SDS011;2509;49.902;8.600;2023-07-31T03:38:39;3.57;;;1.03;;
4984;SDS011;2509;49.902;8.600;2023-07-31T03:41:40;3.10;;;0.80;;
4984;SDS011;2509;49.902;8.600;2023-07-31T03:44:43;4.90;;;1.00;;
4984;SDS011;2509;49.902;8.600;2023-07-31T03:47:45;3.93;;;0.80;;
4984;SDS011;2509;49.902;8.600;2023-07-31T03:50:47;3.57;;;1.27;;
4984;SDS011;2509;49.902;8.600;2023-07-31T03:53:48;3.60;;;1.17;;
4984;SDS011;2509;49.902;8.600;2023-07-31T03:56:50;4.57;;;1.43;;
4984;SDS011;2509;49.902;8.600;2023-07-31T03:59:53;4.00;;;1.43;;
4984;SDS011;2509;49.902;8.600;2023-07-31T04:02:55;4.80;;;1.33;;
4984;SDS011;2509;49.902;8.600;2023-07-31T04:05:57;5.00;;;1.30;;
4984;SDS011;2509;49.902;8.600;2023-07-31T04:08:58;4.37;;;1.33;;
4984;SDS011;2509;49.902;8.600;2023-07-31T04:12:00;3.17;;;1.10;;
4984;SDS011;2509;49.902;8.600;2023-07-31T04:15:04;3.87;;;1.13;;
4984;SDS011;2509;49.902;8.600;2023-07-31T04:18:06;3.63;;;1.20;;
4984;SDS011;2509;49.902;8.600;2023-07-31T04:21:08;4.63;;;1.20;;
4984;SDS011;2509;49.902;8.600;2023-07-31T04:24:10;3.40;;;1.10;;
4984;SDS011;2509;49.902;8.600;2023-07-31T04:27:12;4.20;;;1.20;;
4984;SDS011;2509;49.902;8.600;2023-07-31T04:30:15;4.37;;;1.40;;
4984;SDS011;2509;49.902;8.600;2023-07-31T04:33:17;3.20;;;1.00;;
4984;SDS011;2509;49.902;8.600;2023-07-31T04:36:19;3.57;;;1.27;;
4984;SDS011;2509;49.902;8.600;2023-07-31T04:39:21;4.80;;;1.20;;
4984;SDS011;2509;49.902;8.600;2023-07-31T04:42:22;3.80;;;1.10;;
4984;SDS011;2509;49.902;8.600;2023-07-31T04:45:26;3.90;;;0.90;;
4984;SDS011;2509;49.902;8.600;2023-07-31T04:48:28;3.00;;;0.90;;
4984;SDS011;2509;49.902;8.600;2023-07-31T04:51:29;4.07;;;0.90;;
4984;SDS011;2509;49.902;8.600;2023-07-31T04:54:31;3.73;;;1.10;;
4984;SDS011;2509;49.902;8.600;2023-07-31T04:57:33;3.50;;;1.00;;
4984;SDS011;2509;49.902;8.600;2023-07-31T05:00:36;2.97;;;0.90;;
4984;SDS011;2509;49.902;8.600;2023-07-31T05:03:38;4.40;;;1.07;;
4984;SDS011;2509;49.902;8.600;2023-07-31T05:06:39;3.20;;;0.80;;
4984;SDS011;2509;49.902;8.600;2023-07-31T05:09:41;3.80;;;1.10;;
4984;SDS011;2509;49.902;8.600;2023-07-31T05:12:43;3.33;;;0.70;;
4984;SDS011;2509;49.902;8.600;2023-07-31T05:15:46;3.53;;;0.90;;
4984;SDS011;2509;49.902;8.600;2023-07-31T05:18:49;4.57;;;1.20;;
4984;SDS011;2509;49.902;8.600;2023-07-31T05:21:51;3.63;;;0.90;;
4984;SDS011;2509;49.902;8.600;2023-07-31T05:24:52;2.90;;;0.73;;
4984;SDS011;2509;49.902;8.600;2023-07-31T05:27:55;3.10;;;0.80;;
4984;SDS011;2509;49.902;8.600;2023-07-31T05:30:59;3.83;;;1.17;;
4984;SDS011;2509;49.902;8.600;2023-07-31T05:34:01;3.20;;;0.90;;
4984;SDS011;2509;49.902;8.600;2023-07-31T05:37:03;3.40;;;0.80;;
4984;SDS011;2509;49.902;8.600;2023-07-31T05:40:06;3.20;;;0.80;;
4984;SDS011;2509;49.902;8.600;2023-07-31T05:43:08;3.40;;;0.80;;
4984;SDS011;2509;49.902;8.600;2023-07-31T05:46:11;3.50;;;0.90;;
4984;SDS011;2509;49.902;8.600;2023-07-31T05:49:13;3.67;;;1.00;;
4984;SDS011;2509;49.902;8.600;2023-07-31T05:52:15;3.40;;;1.03;;
4984;SDS011;2509;49.902;8.600;2023-07-31T05:55:17;3.87;;;1.17;;
4984;SDS011;2509;49.902;8.600;2023-07-31T05:58:18;4.03;;;0.80;;
4984;SDS011;2509;49.902;8.600;2023-07-31T06:01:21;5.37;;;1.40;;
4984;SDS011;2509;49.902;8.600;2023-07-31T06:04:23;4.90;;;3.17;;
4984;SDS011;2509;49.902;8.600;2023-07-31T06:07:25;5.67;;;4.00;;
4984;SDS011;2509;49.902;8.600;2023-07-31T06:10:27;4.57;;;1.40;;
4984;SDS011;2509;49.902;8.600;2023-07-31T06:13:29;3.80;;;1.13;;
4984;SDS011;2509;49.902;8.600;2023-07-31T06:16:32;4.17;;;2.30;;
4984;SDS011;2509;49.902;8.600;2023-07-31T06:19:34;5.10;;;1.20;;
4984;SDS011;2509;49.902;8.600;2023-07-31T06:22:35;3.30;;;0.73;;
4984;SDS011;2509;49.902;8.600;2023-07-31T06:25:37;5.93;;;1.10;;
4984;SDS011;2509;49.902;8.600;2023-07-31T06:28:39;3.00;;;0.90;;
4984;SDS011;2509;49.902;8.600;2023-07-31T06:31:42;3.57;;;0.90;;
4984;SDS011;2509;49.902;8.600;2023-07-31T06:34:44;4.00;;;1.00;;
4984;SDS011;2509;49.902;8.600;2023-07-31T06:37:46;3.37;;;1.03;;
4984;SDS011;2509;49.902;8.600;2023-07-31T06:40:47;4.00;;;1.40;;
4984;SDS011;2509;49.902;8.600;2023-07-31T06:43:49;4.00;;;1.10;;
4984;SDS011;2509;49.902;8.600;2023-07-31T06:46:52;3.60;;;0.70;;
4984;SDS011;2509;49.902;8.600;2023-07-31T06:49:55;7.00;;;1.23;;
4984;SDS011;2509;49.902;8.600;2023-07-31T06:52:57;3.40;;;1.00;;
4984;SDS011;2509;49.902;8.600;2023-07-31T06:55:59;3.63;;;0.93;;
4984;SDS011;2509;49.902;8.600;2023-07-31T06:59:00;5.73;;;1.20;;
4984;SDS011;2509;49.902;8.600;2023-07-31T07:02:04;2.93;;;0.80;;
4984;SDS011;2509;49.902;8.600;2023-07-31T07:05:07;3.10;;;0.87;;
4984;SDS011;2509;49.902;8.600;2023-07-31T07:08:09;3.43;;;1.03;;
4984;SDS011;2509;49.902;8.600;2023-07-31T07:11:11;11.80;;;10.70;;
4984;SDS011;2509;49.902;8.600;2023-07-31T07:14:12;3.67;;;1.30;;
4984;SDS011;2509;49.902;8.600;2023-07-31T07:17:15;3.20;;;1.00;;
4984;SDS011;2509;49.902;8.600;2023-07-31T07:20:17;3.90;;;1.10;;
4984;SDS011;2509;49.902;8.600;2023-07-31T07:23:20;3.30;;;0.90;;
4984;SDS011;2509;49.902;8.600;2023-07-31T07:26:22;3.10;;;0.80;;
4984;SDS011;2509;49.902;8.600;2023-07-31T07:29:23;4.53;;;0.90;;
4984;SDS011;2509;49.902;8.600;2023-07-31T07:32:26;3.20;;;0.87;;
4984;SDS011;2509;49.902;8.600;2023-07-31T07:35:28;3.47;;;0.90;;
4984;SDS011;2509;49.902;8.600;2023-07-31T07:38:30;3.10;;;1.00;;
4984;SDS011;2509;49.902;8.600;2023-07-31T07:41:32;4.30;;;0.80;;
4984;SDS011;2509;49.902;8.600;2023-07-31T07:44:33;3.17;;;0.70;;
4984;SDS011;2509;49.902;8.600;2023-07-31T07:47:37;4.63;;;2.50;;
4984;SDS011;2509;49.902;8.600;2023-07-31T07:50:39;3.87;;;1.10;;
4984;SDS011;2509;49.902;8.600;2023-07-31T07:53:40;3.57;;;0.80;;
4984;SDS011;2509;49.902;8.600;2023-07-31T07:56:42;3.30;;;0.73;;
4984;SDS011;2509;49.902;8.600;2023-07-31T07:59:44;3.17;;;0.80;;
4984;SDS011;2509;49.902;8.600;2023-07-31T08:02:47;3.80;;;0.93;;
4984;SDS011;2509;49.902;8.600;2023-07-31T08:05:49;3.03;;;0.93;;
4984;SDS011;2509;49.902;8.600;2023-07-31T08:08:51;2.97;;;0.77;;
4984;SDS011;2509;49.902;8.600;2023-07-31T08:11:52;3.20;;;0.80;;
4984;SDS011;2509;49.902;8.600;2023-07-31T08:14:54;3.53;;;1.33;;
4984;SDS011;2509;49.902;8.600;2023-07-31T08:17:58;4.23;;;1.13;;
4984;SDS011;2509;49.902;8.600;2023-07-31T08:21:02;4.30;;;1.00;;
4984;SDS011;2509;49.902;8.600;2023-07-31T08:24:04;3.30;;;0.90;;
4984;SDS011;2509;49.902;8.600;2023-07-31T08:27:06;3.20;;;1.00;;
4984;SDS011;2509;49.902;8.600;2023-07-31T08:30:08;3.10;;;0.90;;
4984;SDS011;2509;49.902;8.600;2023-07-31T08:33:11;3.07;;;0.90;;
4984;SDS011;2509;49.902;8.600;2023-07-31T08:36:13;3.83;;;0.80;;
4984;SDS011;2509;49.902;8.600;2023-07-31T08:39:15;3.50;;;1.00;;
4984;SDS011;2509;49.902;8.600;2023-07-31T08:42:17;3.37;;;0.90;;
4984;SDS011;2509;49.902;8.600;2023-07-31T08:45:19;3.50;;;1.07;;
4984;SDS011;2509;49.902;8.600;2023-07-31T08:48:23;2.50;;;0.63;;
4984;SDS011;2509;49.902;8.600;2023-07-31T08:51:25;3.10;;;0.83;;
4984;SDS011;2509;49.902;8.600;2023-07-31T08:54:27;4.30;;;0.97;;
4984;SDS011;2509;49.902;8.600;2023-07-31T08:57:31;3.23;;;0.77;;
4984;SDS011;2509;49.902;8.600;2023-07-31T09:00:34;3.00;;;0.80;;
4984;SDS011;2509;49.902;8.600;2023-07-31T09:03:38;2.90;;;0.90;;
4984;SDS011;2509;49.902;8.600;2023-07-31T09:06:41;2.70;;;0.80;;
4984;SDS011;2509;49.902;8.600;2023-07-31T09:09:45;3.60;;;1.10;;
4984;SDS011;2509;49.902;8.600;2023-07-31T09:12:47;3.37;;;0.97;;
4984;SDS011;2509;49.902;8.600;2023-07-31T09:15:50;2.77;;;0.67;;
4984;SDS011;2509;49.902;8.600;2023-07-31T09:18:56;3.03;;;0.80;;
4984;SDS011;2509;49.902;8.600;2023-07-31T09:21:58;3.77;;;0.90;;
4984;SDS011;2509;49.902;8.600;2023-07-31T09:25:04;2.70;;;0.80;;
4984;SDS011;2509;49.902;8.600;2023-07-31T09:28:16;3.83;;;0.83;;
4984;SDS011;2509;49.902;8.600;2023-07-31T09:31:18;3.37;;;1.10;;
4984;SDS011;2509;49.902;8.600;2023-07-31T09:34:38;4.60;;;0.90;;
4984;SDS011;2509;49.902;8.600;2023-07-31T09:37:40;4.30;;;1.07;;
4984;SDS011;2509;49.902;8.600;2023-07-31T09:40:42;3.23;;;0.70;;
4984;SDS011;2509;49.902;8.600;2023-07-31T09:43:45;2.90;;;0.80;;
4984;SDS011;2509;49.902;8.600;2023-07-31T09:46:54;3.30;;;0.93;;
4984;SDS011;2509;49.902;8.600;2023-07-31T09:49:57;3.20;;;0.90;;
4984;SDS011;2509;49.902;8.600;2023-07-31T09:52:59;3.33;;;0.97;;
4984;SDS011;2509;49.902;8.600;2023-07-31T09:56:01;2.73;;;0.80;;
4984;SDS011;2509;49.902;8.600;2023-07-31T09:59:04;3.07;;;0.73;;
4984;SDS011;2509;49.902;8.600;2023-07-31T10:02:06;2.80;;;0.80;;
4984;SDS011;2509;49.902;8.600;2023-07-31T10:05:17;3.20;;;0.90;;
4984;SDS011;2509;49.902;8.600;2023-07-31T10:08:21;2.87;;;0.90;;
4984;SDS011;2509;49.902;8.600;2023-07-31T10:11:29;3.23;;;1.10;;
4984;SDS011;2509;49.902;8.600;2023-07-31T10:14:34;3.23;;;1.00;;
4984;SDS011;2509;49.902;8.600;2023-07-31T10:17:38;4.20;;;1.00;;
4984;SDS011;2509;49.902;8.600;2023-07-31T10:20:42;2.90;;;0.80;;
4984;SDS011;2509;49.902;8.600;2023-07-31T10:23:45;3.03;;;1.00;;
4984;SDS011;2509;49.902;8.600;2023-07-31T10:26:47;2.90;;;0.73;;
4984;SDS011;2509;49.902;8.600;2023-07-31T10:29:51;3.17;;;1.03;;
4984;SDS011;2509;49.902;8.600;2023-07-31T10:32:54;3.07;;;0.77;;
4984;SDS011;2509;49.902;8.600;2023-07-31T10:39:36;3.40;;;1.00;;
4984;SDS011;2509;49.902;8.600;2023-07-31T10:42:44;3.00;;;0.80;;
4984;SDS011;2509;49.902;8.600;2023-07-31T10:45:48;3.03;;;0.77;;
4984;SDS011;2509;49.902;8.600;2023-07-31T10:48:51;3.40;;;1.00;;
4984;SDS011;2509;49.902;8.600;2023-07-31T10:51:59;4.97;;;1.27;;
4984;SDS011;2509;49.902;8.600;2023-07-31T10:55:23;3.37;;;1.00;;
4984;SDS011;2509;49.902;8.600;2023-07-31T10:58:27;3.10;;;0.97;;
4984;SDS011;2509;49.902;8.600;2023-07-31T11:05:05;3.97;;;2.23;;
4984;SDS011;2509;49.902;8.600;2023-07-31T11:08:12;2.87;;;0.77;;
4984;SDS011;2509;49.902;8.600;2023-07-31T11:11:16;2.87;;;0.80;;
4984;SDS011;2509;49.902;8.600;2023-07-31T11:14:20;3.10;;;0.90;;
4984;SDS011;2509;49.902;8.600;2023-07-31T11:17:24;4.43;;;1.10;;
4984;SDS011;2509;49.902;8.600;2023-07-31T11:20:26;3.17;;;0.97;;
4984;SDS011;2509;49.902;8.600;2023-07-31T11:23:30;3.80;;;1.57;;
4984;SDS011;2509;49.902;8.600;2023-07-31T11:26:33;3.90;;;1.10;;
4984;SDS011;2509;49.902;8.600;2023-07-31T11:29:35;3.13;;;1.10;;
4984;SDS011;2509;49.902;8.600;2023-07-31T11:32:37;3.10;;;0.80;;
4984;SDS011;2509;49.902;8.600;2023-07-31T11:35:41;3.00;;;0.90;;
4984;SDS011;2509;49.902;8.600;2023-07-31T11:38:45;3.20;;;1.40;;
4984;SDS011;2509;49.902;8.600;2023-07-31T11:41:48;2.90;;;1.00;;
4984;SDS011;2509;49.902;8.600;2023-07-31T11:44:50;3.40;;;1.10;;
4984;SDS011;2509;49.902;8.600;2023-07-31T11:47:51;2.90;;;0.80;;
4984;SDS011;2509;49.902;8.600;2023-07-31T11:50:57;3.80;;;0.70;;
4984;SDS011;2509;49.902;8.600;2023-07-31T11:54:00;5.27;;;0.70;;
4984;SDS011;2509;49.902;8.600;2023-07-31T11:57:04;2.93;;;1.00;;
4984;SDS011;2509;49.902;8.600;2023-07-31T12:00:07;3.20;;;0.97;;
4984;SDS011;2509;49.902;8.600;2023-07-31T12:03:11;3.07;;;0.80;;
4984;SDS011;2509;49.902;8.600;2023-07-31T12:06:13;3.03;;;0.90;;
4984;SDS011;2509;49.902;8.600;2023-07-31T12:09:14;4.40;;;2.20;;
4984;SDS011;2509;49.902;8.600;2023-07-31T12:12:20;3.90;;;1.10;;
4984;SDS011;2509;49.902;8.600;2023-07-31T12:15:22;2.97;;;0.93;;
4984;SDS011;2509;49.902;8.600;2023-07-31T12:18:33;3.13;;;0.93;;
4984;SDS011;2509;49.902;8.600;2023-07-31T12:21:37;2.80;;;0.80;;
4984;SDS011;2509;49.902;8.600;2023-07-31T12:24:39;2.80;;;0.77;;
4984;SDS011;2509;49.902;8.600;2023-07-31T12:27:44;3.63;;;1.27;;
4984;SDS011;2509;49.902;8.600;2023-07-31T12:30:46;2.70;;;0.80;;
4984;SDS011;2509;49.902;8.600;2023-07-31T12:33:49;3.17;;;0.83;;
4984;SDS011;2509;49.902;8.600;2023-07-31T12:36:52;3.40;;;1.03;;
4984;SDS011;2509;49.902;8.600;2023-07-31T12:39:54;3.40;;;1.50;;
4984;SDS011;2509;49.902;8.600;2023-07-31T12:43:02;3.20;;;1.10;;
4984;SDS011;2509;49.902;8.600;2023-07-31T12:46:04;2.80;;;0.80;;
4984;SDS011;2509;49.902;8.600;2023-07-31T12:49:07;2.90;;;1.00;;
4984;SDS011;2509;49.902;8.600;2023-07-31T12:52:09;4.37;;;0.90;;
4984;SDS011;2509;49.902;8.600;2023-07-31T12:55:11;3.23;;;0.73;;
4984;SDS011;2509;49.902;8.600;2023-07-31T12:58:14;2.70;;;0.80;;
4984;SDS011;2509;49.902;8.600;2023-07-31T13:01:16;3.63;;;0.70;;
4984;SDS011;2509;49.902;8.600;2023-07-31T13:04:17;3.20;;;1.10;;
4984;SDS011;2509;49.902;8.600;2023-07-31T13:07:19;3.00;;;0.80;;
4984;SDS011;2509;49.902;8.600;2023-07-31T13:10:21;3.10;;;1.00;;
4984;SDS011;2509;49.902;8.600;2023-07-31T13:13:25;3.00;;;1.10;;
4984;SDS011;2509;49.902;8.600;2023-07-31T13:16:27;3.30;;;1.20;;
4984;SDS011;2509;49.902;8.600;2023-07-31T13:19:29;3.97;;;0.87;;
4984;SDS011;2509;49.902;8.600;2023-07-31T13:22:30;3.27;;;1.10;;
4984;SDS011;2509;49.902;8.600;2023-07-31T13:25:32;2.87;;;0.80;;
4984;SDS011;2509;49.902;8.600;2023-07-31T13:28:35;3.23;;;0.93;;
4984;SDS011;2509;49.902;8.600;2023-07-31T13:31:37;2.90;;;1.03;;
4984;SDS011;2509;49.902;8.600;2023-07-31T13:34:39;2.77;;;0.97;;
4984;SDS011;2509;49.902;8.600;2023-07-31T13:37:40;2.70;;;0.80;;
4984;SDS011;2509;49.902;8.600;2023-07-31T13:40:42;3.40;;;1.10;;
4984;SDS011;2509;49.902;8.600;2023-07-31T13:43:45;3.37;;;0.90;;
4984;SDS011;2509;49.902;8.600;2023-07-31T13:46:47;2.93;;;0.73;;
4984;SDS011;2509;49.902;8.600;2023-07-31T13:49:48;3.40;;;1.10;;
4984;SDS011;2509;49.902;8.600;2023-07-31T13:52:50;3.20;;;0.90;;
4984;SDS011;2509;49.902;8.600;2023-07-31T13:55:52;3.30;;;0.90;;
4984;SDS011;2509;49.902;8.600;2023-07-31T13:58:55;5.97;;;1.17;;
4984;SDS011;2509;49.902;8.600;2023-07-31T14:01:57;3.67;;;1.40;;
4984;SDS011;2509;49.902;8.600;2023-07-31T14:04:58;2.77;;;0.90;;
4984;SDS011;2509;49.902;8.600;2023-07-31T14:08:00;2.90;;;0.90;;
4984;SDS011;2509;49.902;8.600;2023-07-31T14:11:02;3.83;;;1.20;;
4984;SDS011;2509;49.902;8.600;2023-07-31T14:14:05;2.70;;;0.70;;
4984;SDS011;2509;49.902;8.600;2023-07-31T14:17:07;3.10;;;1.20;;
4984;SDS011;2509;49.902;8.600;2023-07-31T14:20:09;3.33;;;1.10;;
4984;SDS011;2509;49.902;8.600;2023-07-31T14:23:11;2.83;;;0.80;;
4984;SDS011;2509;49.902;8.600;2023-07-31T14:26:13;3.50;;;1.17;;
4984;SDS011;2509;49.902;8.600;2023-07-31T14:29:16;4.40;;;1.20;;
4984;SDS011;2509;49.902;8.600;2023-07-31T14:32:18;2.97;;;1.03;;
4984;SDS011;2509;49.902;8.600;2023-07-31T14:35:20;3.30;;;1.20;;
4984;SDS011;2509;49.902;8.600;2023-07-31T14:38:21;2.73;;;0.80;;
4984;SDS011;2509;49.902;8.600;2023-07-31T14:41:23;3.20;;;1.07;;
4984;SDS011;2509;49.902;8.600;2023-07-31T14:44:26;4.03;;;1.23;;
4984;SDS011;2509;49.902;8.600;2023-07-31T14:47:28;3.30;;;1.00;;
4984;SDS011;2509;49.902;8.600;2023-07-31T14:50:31;4.70;;;1.13;;
4984;SDS011;2509;49.902;8.600;2023-07-31T14:53:32;2.73;;;0.90;;
4984;SDS011;2509;49.902;8.600;2023-07-31T14:56:34;3.03;;;0.90;;
4984;SDS011;2509;49.902;8.600;2023-07-31T14:59:37;2.77;;;0.77;;
4984;SDS011;2509;49.902;8.600;2023-07-31T15:02:39;3.63;;;1.83;;
4984;SDS011;2509;49.902;8.600;2023-07-31T15:05:41;3.77;;;1.47;;
4984;SDS011;2509;49.902;8.600;2023-07-31T15:08:43;2.80;;;0.90;;
4984;SDS011;2509;49.902;8.600;2023-07-31T15:11:45;3.67;;;0.90;;
4984;SDS011;2509;49.902;8.600;2023-07-31T15:14:48;3.00;;;0.83;;
4984;SDS011;2509;49.902;8.600;2023-07-31T15:17:52;2.90;;;0.90;;
4984;SDS011;2509;49.902;8.600;2023-07-31T15:20:54;3.10;;;1.00;;
4984;SDS011;2509;49.902;8.600;2023-07-31T15:23:55;3.33;;;1.30;;
4984;SDS011;2509;49.902;8.600;2023-07-31T15:26:57;3.77;;;1.30;;
4984;SDS011;2509;49.902;8.600;2023-07-31T15:30:00;3.10;;;1.07;;
4984;SDS011;2509;49.902;8.600;2023-07-31T15:33:04;3.30;;;1.00;;
4984;SDS011;2509;49.902;8.600;2023-07-31T15:36:05;3.27;;;1.03;;
4984;SDS011;2509;49.902;8.600;2023-07-31T15:39:07;3.20;;;1.10;;
4984;SDS011;2509;49.902;8.600;2023-07-31T15:42:09;2.83;;;0.63;;
4984;SDS011;2509;49.902;8.600;2023-07-31T15:45:12;2.80;;;0.90;;
4984;SDS011;2509;49.902;8.600;2023-07-31T15:48:14;2.83;;;0.80;;
4984;SDS011;2509;49.902;8.600;2023-07-31T15:51:16;3.57;;;0.70;;
4984;SDS011;2509;49.902;8.600;2023-07-31T15:54:17;3.33;;;0.90;;
4984;SDS011;2509;49.902;8.600;2023-07-31T15:57:19;3.63;;;2.13;;
4984;SDS011;2509;49.902;8.600;2023-07-31T16:00:22;3.43;;;0.90;;
4984;SDS011;2509;49.902;8.600;2023-07-31T16:03:24;4.20;;;0.90;;
4984;SDS011;2509;49.902;8.600;2023-07-31T16:06:26;2.97;;;0.80;;
4984;SDS011;2509;49.902;8.600;2023-07-31T16:09:28;4.10;;;0.93;;
4984;SDS011;2509;49.902;8.600;2023-07-31T16:12:30;2.67;;;0.63;;
4984;SDS011;2509;49.902;8.600;2023-07-31T16:15:34;2.87;;;0.70;;
4984;SDS011;2509;49.902;8.600;2023-07-31T16:18:36;3.70;;;0.80;;
4984;SDS011;2509;49.902;8.600;2023-07-31T16:21:38;3.40;;;1.13;;
4984;SDS011;2509;49.902;8.600;2023-07-31T16:24:39;3.13;;;0.90;;
4984;SDS011;2509;49.902;8.600;2023-07-31T16:27:41;3.23;;;1.10;;
4984;SDS011;2509;49.902;8.600;2023-07-31T16:30:44;3.10;;;1.10;;
4984;SDS011;2509;49.902;8.600;2023-07-31T16:33:46;2.80;;;0.80;;
4984;SDS011;2509;49.902;8.600;2023-07-31T16:36:48;4.10;;;1.60;;
4984;SDS011;2509;49.902;8.600;2023-07-31T16:39:49;4.73;;;2.87;;
4984;SDS011;2509;49.902;8.600;2023-07-31T16:42:52;21.30;;;19.40;;
4984;SDS011;2509;49.902;8.600;2023-07-31T16:45:55;8.10;;;7.40;;
4984;SDS011;2509;49.902;8.600;2023-07-31T16:48:57;7.87;;;7.27;;
4984;SDS011;2509;49.902;8.600;2023-07-31T16:51:58;7.07;;;6.37;;
4984;SDS011;2509;49.902;8.600;2023-07-31T16:55:00;6.27;;;5.77;;
4984;SDS011;2509;49.902;8.600;2023-07-31T16:58:02;6.37;;;5.87;;
4984;SDS011;2509;49.902;8.600;2023-07-31T17:01:05;7.10;;;6.50;;
4984;SDS011;2509;49.902;8.600;2023-07-31T17:04:07;6.13;;;5.53;;
4984;SDS011;2509;49.902;8.600;2023-07-31T17:07:09;6.00;;;5.50;;
4984;SDS011;2509;49.902;8.600;2023-07-31T17:10:11;5.60;;;5.10;;
4984;SDS011;2509;49.902;8.600;2023-07-31T17:13:13;5.30;;;4.80;;
4984;SDS011;2509;49.902;8.600;2023-07-31T17:16:16;8.47;;;7.87;;
4984;SDS011;2509;49.902;8.600;2023-07-31T17:19:18;7.40;;;6.80;;
4984;SDS011;2509;49.902;8.600;2023-07-31T17:22:20;17.57;;;16.10;;
4984;SDS011;2509;49.902;8.600;2023-07-31T17:25:22;11.23;;;10.33;;
4984;SDS011;2509;49.902;8.600;2023-07-31T17:28:24;7.73;;;7.03;;
4984;SDS011;2509;49.902;8.600;2023-07-31T17:31:27;4.60;;;3.90;;
4984;SDS011;2509;49.902;8.600;2023-07-31T17:34:30;3.80;;;3.07;;
4984;SDS011;2509;49.902;8.600;2023-07-31T17:37:33;4.23;;;2.60;;
4984;SDS011;2509;49.902;8.600;2023-07-31T17:40:37;3.97;;;2.63;;
4984;SDS011;2509;49.902;8.600;2023-07-31T17:43:38;3.50;;;2.00;;
4984;SDS011;2509;49.902;8.600;2023-07-31T17:46:41;4.00;;;2.20;;
4984;SDS011;2509;49.902;8.600;2023-07-31T17:49:43;3.40;;;1.63;;
4984;SDS011;2509;49.902;8.600;2023-07-31T17:52:45;3.83;;;1.90;;
4984;SDS011;2509;49.902;8.600;2023-07-31T17:55:47;3.50;;;1.77;;
4984;SDS011;2509;49.902;8.600;2023-07-31T17:58:49;4.13;;;1.80;;
4984;SDS011;2509;49.902;8.600;2023-07-31T18:01:52;5.90;;;1.43;;
4984;SDS011;2509;49.902;8.600;2023-07-31T18:04:54;3.93;;;1.87;;
4984;SDS011;2509;49.902;8.600;2023-07-31T18:07:55;3.40;;;1.70;;
4984;SDS011;2509;49.902;8.600;2023-07-31T18:10:57;3.40;;;1.60;;
4984;SDS011;2509;49.902;8.600;2023-07-31T18:13:59;4.00;;;2.23;;
4984;SDS011;2509;49.902;8.600;2023-07-31T18:17:02;4.70;;;2.33;;
4984;SDS011;2509;49.902;8.600;2023-07-31T18:20:05;3.53;;;1.63;;
4984;SDS011;2509;49.902;8.600;2023-07-31T18:23:10;4.43;;;2.07;;
4984;SDS011;2509;49.902;8.600;2023-07-31T18:26:11;3.53;;;1.50;;
4984;SDS011;2509;49.902;8.600;2023-07-31T18:29:13;3.50;;;1.70;;
4984;SDS011;2509;49.902;8.600;2023-07-31T18:32:16;4.10;;;1.90;;
4984;SDS011;2509;49.902;8.600;2023-07-31T18:35:18;4.10;;;2.13;;
4984;SDS011;2509;49.902;8.600;2023-07-31T18:38:20;4.07;;;1.50;;
4984;SDS011;2509;49.902;8.600;2023-07-31T18:41:21;3.90;;;1.83;;
4984;SDS011;2509;49.902;8.600;2023-07-31T18:44:23;3.10;;;1.30;;
4984;SDS011;2509;49.902;8.600;2023-07-31T18:47:26;3.40;;;1.50;;
4984;SDS011;2509;49.902;8.600;2023-07-31T18:50:28;4.57;;;1.40;;
4984;SDS011;2509;49.902;8.600;2023-07-31T18:53:30;3.43;;;1.13;;
4984;SDS011;2509;49.902;8.600;2023-07-31T18:56:31;7.40;;;1.87;;
4984;SDS011;2509;49.902;8.600;2023-07-31T18:59:34;3.43;;;1.20;;
4984;SDS011;2509;49.902;8.600;2023-07-31T19:02:37;3.23;;;1.20;;